createdAt,value
2022-12-08T00:01:10.630Z,16.70
2022-12-08T00:03:37.617Z,18.92
2022-12-08T00:06:24.344Z,16.42
2022-12-08T00:09:10.145Z,17.83
2022-12-08T00:11:36.802Z,16.67
2022-12-08T00:14:03.345Z,19.25
2022-12-08T00:16:29.885Z,15.25
2022-12-08T00:18:56.503Z,21.65
2022-12-08T00:21:22.877Z,17.85
2022-12-08T00:23:49.474Z,19.73
2022-12-08T00:26:16.271Z,20.55
2022-12-08T00:28:42.700Z,20.05
2022-12-08T00:31:11.149Z,20.20
2022-12-08T00:33:38.165Z,17.17
2022-12-08T00:36:13.680Z,16.48
2022-12-08T00:38:41.635Z,19.08
2022-12-08T00:41:13.265Z,20.02
2022-12-08T00:43:39.814Z,16.85
2022-12-08T00:46:06.445Z,20.02
2022-12-08T00:48:32.943Z,17.73
2022-12-08T00:50:59.614Z,17.25
2022-12-08T00:53:26.081Z,14.80
2022-12-08T00:55:52.646Z,17.33
2022-12-08T00:58:19.051Z,18.48
2022-12-08T01:00:45.527Z,18.77
2022-12-08T01:03:12.975Z,18.13
2022-12-08T01:05:39.608Z,18.70
2022-12-08T01:08:07.110Z,19.50
2022-12-08T01:10:37.540Z,17.25
2022-12-08T01:13:04.415Z,16.02
2022-12-08T01:15:31.009Z,17.65
2022-12-08T01:17:57.538Z,19.73
2022-12-08T01:20:24.474Z,17.90
2022-12-08T01:22:50.978Z,16.80
2022-12-08T01:25:17.640Z,19.15
2022-12-08T01:27:44.126Z,16.17
2022-12-08T01:30:11.000Z,20.33
2022-12-08T01:32:37.924Z,17.10
2022-12-08T01:35:04.655Z,16.92
2022-12-08T01:37:31.363Z,19.05
2022-12-08T01:39:57.763Z,18.65
2022-12-08T01:50:30.562Z,19.02
2022-12-08T01:53:09.183Z,21.05
2022-12-08T01:55:42.643Z,15.93
2022-12-08T01:58:26.993Z,20.13
2022-12-08T02:00:53.999Z,16.90
2022-12-08T02:03:31.584Z,17.15
2022-12-08T02:05:58.555Z,18.38
2022-12-08T02:08:26.667Z,16.02
2022-12-08T02:10:53.115Z,16.67
2022-12-08T02:13:23.177Z,17.90
2022-12-08T02:16:03.784Z,13.25
2022-12-08T02:19:33.255Z,15.75
2022-12-08T02:22:12.797Z,18.70
2022-12-08T02:24:42.217Z,17.35
2022-12-08T02:27:41.185Z,16.83
2022-12-08T02:30:22.836Z,17.70
2022-12-08T02:33:25.545Z,17.70
2022-12-08T02:36:06.161Z,14.20
2022-12-08T02:39:00.617Z,14.23
2022-12-08T02:41:46.431Z,21.02
2022-12-08T02:44:22.289Z,18.15
2022-12-08T02:46:54.858Z,14.82
2022-12-08T02:49:21.186Z,14.27
2022-12-08T02:54:29.251Z,13.98
2022-12-08T02:57:24.121Z,12.93
2022-12-08T03:00:03.536Z,15.10
2022-12-08T03:02:42.519Z,14.55
2022-12-08T03:05:53.625Z,15.35
2022-12-08T03:08:41.999Z,17.95
2022-12-08T03:11:14.932Z,15.30
2022-12-08T03:13:46.041Z,18.90
2022-12-08T03:16:17.396Z,12.18
2022-12-08T03:18:51.032Z,12.27
2022-12-08T03:21:19.397Z,16.58
2022-12-08T03:23:47.505Z,14.27
2022-12-08T03:26:24.988Z,14.68
2022-12-08T03:28:51.544Z,14.77
2022-12-08T03:31:19.418Z,19.00
2022-12-08T03:36:16.278Z,11.75
2022-12-08T03:38:46.133Z,14.38
2022-12-08T03:41:18.540Z,13.88
2022-12-08T03:43:49.170Z,14.00
2022-12-08T03:48:49.502Z,16.80
2022-12-08T04:07:20.414Z,14.68
2022-12-08T04:09:46.731Z,14.60
2022-12-08T04:12:13.046Z,16.27
2022-12-08T04:28:09.314Z,14.55
2022-12-08T04:30:35.807Z,19.67
2022-12-08T04:38:14.979Z,18.95
2022-12-08T06:20:35.204Z,17.40
2022-12-08T06:49:54.719Z,16.77
2022-12-08T06:52:21.060Z,15.45
2022-12-08T06:54:47.508Z,18.10
2022-12-08T06:57:13.861Z,15.27
2022-12-08T06:59:40.220Z,18.08
2022-12-08T07:02:07.022Z,18.25
2022-12-08T07:04:33.417Z,18.35
2022-12-08T07:06:59.738Z,18.25
2022-12-08T07:09:26.122Z,21.15
2022-12-08T07:11:52.478Z,16.35
2022-12-08T07:14:20.391Z,18.10
2022-12-08T07:16:47.122Z,17.13
2022-12-08T07:19:13.481Z,20.17
2022-12-08T07:21:39.924Z,21.60
2022-12-08T07:24:06.542Z,14.77
2022-12-08T07:26:32.873Z,16.40
2022-12-08T07:29:00.030Z,17.35
2022-12-08T07:31:27.835Z,15.07
2022-12-08T07:36:21.871Z,16.17
2022-12-08T07:38:48.835Z,17.90
2022-12-08T07:41:21.678Z,17.55
2022-12-08T07:43:49.938Z,16.48
2022-12-08T07:46:19.439Z,16.27
2022-12-08T07:48:46.326Z,16.10
2022-12-08T07:51:14.748Z,22.60
2022-12-08T07:53:43.873Z,19.20
2022-12-08T07:56:13.245Z,17.55
2022-12-08T07:58:40.880Z,18.58
2022-12-08T08:01:22.214Z,18.95
2022-12-08T08:03:49.196Z,15.65
2022-12-08T08:06:15.646Z,16.77
2022-12-08T08:08:41.973Z,16.10
2022-12-08T08:11:14.577Z,16.23
2022-12-08T08:13:45.786Z,15.73
2022-12-08T08:16:13.596Z,16.92
2022-12-08T08:18:40.637Z,18.35
2022-12-08T08:21:43.343Z,18.90
2022-12-08T08:23:54.068Z,18.40
2022-12-08T08:26:20.432Z,17.70
2022-12-08T08:28:48.090Z,18.98
2022-12-08T08:31:14.680Z,17.13
2022-12-08T08:33:41.122Z,17.35
2022-12-08T08:36:10.809Z,19.13
2022-12-08T08:38:40.092Z,12.90
2022-12-08T08:41:11.111Z,16.30
2022-12-08T08:43:38.905Z,17.25
2022-12-08T08:46:06.742Z,17.13
2022-12-08T08:48:33.605Z,16.83
2022-12-08T08:51:07.990Z,15.95
2022-12-08T08:53:34.364Z,19.77
2022-12-08T08:56:02.852Z,19.00
2022-12-08T08:58:29.420Z,18.38
2022-12-08T09:00:56.435Z,17.05
2022-12-08T09:03:22.829Z,17.73
2022-12-08T09:05:50.541Z,17.25
2022-12-08T09:10:43.513Z,18.33
2022-12-08T09:13:09.832Z,18.25
2022-12-08T09:15:36.246Z,16.35
2022-12-08T09:18:02.734Z,16.80
2022-12-08T09:20:29.151Z,17.05
2022-12-08T09:22:55.501Z,17.48
2022-12-08T09:25:21.841Z,16.42
2022-12-08T09:27:48.183Z,14.02
2022-12-08T09:30:14.683Z,13.60
2022-12-08T09:32:41.040Z,17.60
2022-12-08T09:35:07.966Z,16.02
2022-12-08T09:37:34.379Z,15.70
2022-12-08T09:40:00.814Z,16.98
2022-12-08T09:42:33.279Z,15.23
2022-12-08T09:45:03.980Z,15.48
2022-12-08T09:47:39.574Z,13.43
2022-12-08T09:50:30.383Z,15.38
2022-12-08T09:53:09.125Z,13.52
2022-12-08T09:55:45.547Z,14.73
2022-12-08T09:58:23.640Z,14.65
2022-12-08T10:00:50.005Z,11.80
2022-12-08T10:03:17.132Z,13.73
2022-12-08T10:05:54.671Z,14.57
2022-12-08T10:08:28.263Z,12.23
2022-12-08T10:10:59.258Z,14.05
2022-12-08T10:14:04.022Z,13.75
2022-12-08T10:16:42.320Z,11.93
2022-12-08T10:19:17.588Z,14.55
2022-12-08T10:21:44.813Z,13.73
2022-12-08T10:24:33.452Z,15.95
2022-12-08T10:27:01.511Z,11.43
2022-12-08T10:29:28.075Z,14.45
2022-12-08T10:31:58.540Z,12.25
2022-12-08T10:34:25.005Z,11.70
2022-12-08T10:36:52.926Z,14.73
2022-12-08T10:39:37.072Z,10.52
2022-12-08T10:42:13.426Z,10.20
2022-12-08T10:45:03.801Z,13.07
2022-12-08T10:47:35.240Z,13.00
2022-12-08T10:50:09.847Z,9.77
2022-12-08T10:52:40.507Z,14.05
2022-12-08T10:55:18.146Z,13.25
2022-12-08T10:57:44.855Z,10.35
2022-12-08T11:00:20.633Z,12.35
2022-12-08T11:02:59.293Z,15.00
2022-12-08T11:05:33.230Z,9.98
2022-12-08T11:08:00.513Z,11.40
2022-12-08T11:10:42.456Z,11.32
2022-12-08T11:13:18.504Z,13.27
2022-12-08T11:15:46.486Z,11.02
2022-12-08T11:18:43.386Z,11.73
2022-12-08T11:21:18.408Z,9.55
2022-12-08T11:23:50.224Z,13.57
2022-12-08T11:26:35.472Z,10.05
2022-12-08T11:29:02.012Z,10.75
2022-12-08T11:31:34.419Z,11.18
2022-12-08T11:34:03.080Z,9.90
2022-12-08T11:36:33.756Z,14.45
2022-12-08T11:39:02.697Z,10.98
2022-12-08T11:41:36.772Z,10.90
2022-12-08T11:44:34.061Z,10.40
2022-12-08T11:47:24.282Z,9.63
2022-12-08T11:49:56.669Z,10.05
2022-12-08T11:52:46.604Z,9.13
2022-12-08T11:55:49.983Z,8.40
2022-12-08T11:58:21.386Z,11.32
2022-12-08T12:00:50.401Z,9.00
2022-12-08T12:03:34.021Z,7.47
2022-12-08T12:06:53.680Z,6.88
2022-12-08T12:09:36.357Z,8.80
2022-12-08T12:12:29.297Z,12.25
2022-12-08T12:15:27.197Z,8.65
2022-12-08T12:17:59.898Z,9.25
2022-12-08T12:20:52.933Z,9.52
2022-12-08T12:23:37.154Z,10.52
2022-12-08T12:26:07.136Z,9.27
2022-12-08T12:28:49.559Z,7.00
2022-12-08T12:31:21.882Z,8.60
2022-12-08T12:33:50.298Z,8.65
2022-12-08T12:36:17.000Z,8.35
2022-12-08T12:39:04.170Z,7.13
2022-12-08T12:42:04.209Z,8.55
2022-12-08T12:44:33.375Z,7.28
2022-12-08T12:47:01.515Z,8.52
2022-12-08T12:49:40.091Z,11.15
2022-12-08T12:52:31.794Z,11.80
2022-12-08T12:54:58.331Z,8.45
2022-12-08T12:57:36.610Z,11.63
2022-12-08T13:00:02.894Z,10.95
2022-12-08T13:02:37.982Z,9.32
2022-12-08T13:05:13.241Z,12.75
2022-12-08T13:08:02.867Z,12.85
2022-12-08T13:10:39.181Z,15.40
2022-12-08T13:13:07.429Z,10.30
2022-12-08T13:15:55.718Z,8.88
2022-12-08T13:18:29.037Z,12.00
2022-12-08T13:21:10.654Z,13.60
2022-12-08T13:23:36.908Z,11.13
2022-12-08T13:26:09.549Z,8.82
2022-12-08T13:28:58.766Z,9.32
2022-12-08T13:31:50.096Z,10.27
2022-12-08T13:34:25.595Z,10.00
2022-12-08T13:37:15.610Z,12.30
2022-12-08T13:39:51.084Z,10.05
2022-12-08T13:42:29.411Z,8.85
2022-12-08T13:48:44.663Z,12.00
2022-12-08T13:57:10.441Z,11.13
2022-12-08T13:59:43.747Z,9.50
2022-12-08T14:02:45.307Z,10.50
2022-12-08T14:05:19.543Z,10.70
2022-12-08T14:07:51.792Z,13.98
2022-12-08T14:10:22.138Z,9.93
2022-12-08T14:12:55.410Z,7.40
2022-12-08T14:15:22.443Z,10.45
2022-12-08T14:17:53.893Z,10.77
2022-12-08T14:20:26.456Z,9.60
2022-12-08T14:22:54.387Z,10.88
2022-12-08T14:25:22.300Z,8.38
2022-12-08T14:27:49.217Z,12.93
2022-12-08T14:30:19.184Z,12.18
2022-12-08T14:32:53.972Z,7.60
2022-12-08T14:35:22.729Z,9.95
2022-12-08T14:37:52.862Z,12.45
2022-12-08T14:40:23.556Z,10.85
2022-12-08T14:42:54.179Z,8.50
2022-12-08T14:45:21.271Z,10.10
2022-12-08T14:47:48.525Z,9.63
2022-12-08T14:50:41.615Z,10.40
2022-12-08T14:53:14.383Z,13.63
2022-12-08T14:55:40.853Z,11.02
2022-12-08T14:58:07.330Z,10.35
2022-12-08T15:00:34.077Z,11.70
2022-12-08T15:03:06.850Z,10.52
2022-12-08T15:05:33.370Z,12.18
2022-12-08T15:08:02.821Z,9.27
2022-12-08T15:10:37.981Z,10.32
2022-12-08T15:13:22.404Z,7.15
2022-12-08T15:15:57.671Z,6.82
2022-12-08T15:18:41.236Z,8.68
2022-12-08T15:21:09.416Z,8.73
2022-12-08T15:23:44.736Z,11.13
2022-12-08T15:26:21.027Z,9.98
2022-12-08T15:28:47.551Z,14.57
2022-12-08T15:31:15.350Z,12.15
2022-12-08T15:33:41.969Z,12.65
2022-12-08T15:36:09.529Z,10.57
2022-12-08T15:38:37.024Z,12.48
2022-12-08T15:41:04.535Z,10.80
2022-12-08T15:43:32.116Z,10.73
2022-12-08T15:46:00.048Z,14.10
2022-12-08T15:48:29.007Z,12.13
2022-12-08T15:50:56.253Z,8.05
2022-12-08T15:53:22.703Z,9.85
2022-12-08T15:56:18.866Z,10.57
2022-12-08T15:58:54.256Z,9.00
2022-12-08T16:01:21.977Z,7.75
2022-12-08T16:09:42.176Z,10.43
2022-12-08T16:13:40.233Z,9.20
2022-12-08T16:18:17.264Z,8.73
2022-12-08T16:21:07.454Z,5.47
2022-12-08T16:23:45.883Z,7.57
2022-12-08T16:26:44.407Z,7.72
2022-12-08T16:29:05.339Z,7.93
2022-12-08T16:31:32.301Z,8.18
2022-12-08T16:33:58.799Z,6.95
2022-12-08T16:36:25.237Z,7.50
2022-12-08T16:38:51.680Z,5.68
2022-12-08T16:41:36.922Z,6.13
2022-12-08T16:44:05.951Z,5.20
2022-12-08T16:46:32.648Z,6.63
2022-12-08T16:48:59.224Z,6.25
2022-12-08T16:51:27.391Z,4.03
2022-12-08T16:53:58.209Z,6.63
2022-12-08T16:56:30.593Z,7.25
2022-12-08T16:58:58.992Z,8.18
2022-12-08T17:01:25.624Z,11.18
2022-12-08T17:04:14.740Z,10.55
2022-12-08T17:06:38.423Z,17.40
2022-12-08T17:09:05.101Z,14.05
2022-12-08T17:11:36.289Z,18.63
2022-12-08T17:14:09.186Z,17.08
2022-12-08T17:16:35.846Z,15.35
2022-12-08T17:19:02.336Z,14.65
2022-12-08T17:21:28.804Z,14.05
2022-12-08T17:23:55.231Z,8.82
2022-12-08T17:26:21.532Z,9.80
2022-12-08T17:29:03.237Z,9.73
2022-12-08T17:31:32.261Z,9.52
2022-12-08T17:34:03.335Z,10.88
2022-12-08T17:36:29.735Z,10.02
2022-12-08T17:38:57.017Z,13.07
2022-12-08T17:41:23.488Z,12.95
2022-12-08T17:43:49.844Z,15.35
2022-12-08T17:46:18.403Z,11.52
2022-12-08T17:48:45.007Z,10.57
2022-12-08T17:51:11.552Z,11.13
2022-12-08T17:53:40.561Z,10.07
2022-12-08T17:56:14.314Z,8.95
2022-12-08T18:01:08.710Z,10.68
2022-12-08T18:03:35.699Z,9.10
2022-12-08T18:06:11.172Z,12.60
2022-12-08T18:08:37.968Z,11.63
2022-12-08T18:11:05.597Z,16.77
2022-12-08T18:15:58.424Z,18.35
2022-12-08T18:18:24.895Z,18.02
2022-12-08T18:20:51.237Z,18.20
2022-12-08T18:23:18.522Z,10.38
2022-12-08T18:25:45.108Z,12.10
2022-12-08T18:28:11.501Z,14.50
2022-12-08T18:30:38.901Z,10.07
2022-12-08T18:33:05.825Z,11.73
2022-12-08T18:35:32.421Z,12.90
2022-12-08T18:38:00.102Z,12.93
2022-12-08T18:42:55.751Z,12.00
2022-12-08T18:45:22.881Z,12.43
2022-12-08T18:47:51.225Z,9.00
2022-12-08T18:50:19.379Z,11.48
2022-12-08T18:52:46.862Z,15.70
2022-12-08T18:55:14.436Z,11.07
2022-12-08T18:57:43.028Z,15.68
2022-12-08T19:00:13.573Z,11.52
2022-12-08T19:02:40.282Z,12.20
2022-12-08T19:05:08.238Z,14.93
2022-12-08T19:07:35.188Z,12.65
2022-12-08T19:10:01.693Z,13.90
2022-12-08T19:12:28.037Z,19.15
2022-12-08T19:14:54.539Z,29.10
2022-12-08T19:17:21.399Z,19.23
2022-12-08T19:19:47.722Z,22.90
2022-12-08T19:22:14.262Z,22.38
2022-12-08T19:24:40.752Z,18.52
2022-12-08T19:27:07.174Z,21.88
2022-12-08T19:29:33.593Z,17.92
2022-12-08T19:32:00.386Z,18.70
2022-12-08T19:34:27.002Z,19.88
2022-12-08T19:36:53.517Z,17.35
2022-12-08T19:39:40.660Z,17.27
2022-12-08T19:42:34.181Z,20.42
2022-12-08T19:45:11.913Z,18.25
2022-12-08T19:47:39.270Z,14.68
2022-12-08T19:50:25.866Z,17.60
2022-12-08T19:52:52.670Z,23.92
2022-12-08T19:55:19.104Z,21.92
2022-12-08T19:57:45.467Z,17.05
2022-12-08T20:00:12.859Z,19.52
2022-12-08T20:02:39.247Z,17.63
2022-12-08T20:05:06.413Z,15.73
2022-12-08T20:07:33.221Z,15.48
2022-12-08T20:09:59.723Z,16.42
2022-12-08T20:12:26.127Z,13.23
2022-12-08T20:14:52.516Z,15.23
2022-12-08T20:17:19.488Z,19.25
2022-12-08T20:19:46.040Z,17.17
2022-12-08T20:22:12.402Z,17.73
2022-12-08T20:24:38.859Z,18.80
2022-12-08T20:27:05.207Z,23.60
2022-12-08T20:29:31.788Z,17.77
2022-12-08T20:31:58.406Z,16.45
2022-12-08T20:34:24.815Z,18.88
2022-12-08T20:36:51.345Z,19.88
2022-12-08T20:39:18.731Z,19.52
2022-12-08T20:41:46.599Z,18.33
2022-12-08T20:44:13.064Z,22.42
2022-12-08T20:46:40.480Z,16.10
2022-12-08T20:49:09.333Z,20.60
2022-12-08T20:51:35.838Z,14.57
2022-12-08T20:54:04.389Z,18.10
2022-12-08T20:56:34.051Z,24.33
2022-12-08T20:59:00.728Z,24.05
2022-12-08T21:01:27.246Z,28.75
2022-12-08T21:03:54.435Z,21.52
2022-12-08T21:06:23.383Z,21.20
2022-12-08T21:08:51.105Z,18.75
2022-12-08T21:13:44.587Z,16.35
2022-12-08T21:16:15.619Z,17.02
2022-12-08T21:18:42.521Z,15.50
2022-12-08T21:21:12.327Z,16.00
2022-12-08T21:23:38.962Z,16.23
2022-12-08T21:26:17.526Z,16.85
2022-12-08T21:28:45.037Z,19.77
2022-12-08T21:31:13.987Z,15.75
2022-12-08T21:33:41.232Z,17.98
2022-12-08T21:36:12.458Z,21.88
2022-12-08T21:38:39.785Z,19.20
2022-12-08T21:41:12.936Z,15.80
2022-12-08T21:43:39.759Z,18.52
2022-12-08T21:46:06.262Z,19.17
2022-12-08T21:48:32.917Z,20.45
2022-12-08T21:51:08.671Z,20.17
2022-12-08T21:53:35.149Z,15.50
2022-12-08T21:56:01.766Z,19.25
2022-12-08T21:58:28.555Z,17.45
2022-12-08T22:00:55.176Z,17.25
2022-12-08T22:03:21.888Z,16.25
2022-12-08T22:05:48.716Z,17.70
2022-12-08T22:08:15.309Z,16.40
2022-12-08T22:10:47.268Z,19.73
2022-12-08T22:13:13.927Z,19.70
2022-12-08T22:15:40.299Z,17.42
2022-12-08T22:18:07.006Z,16.25
2022-12-08T22:20:33.481Z,19.27
2022-12-08T22:23:00.158Z,15.85
2022-12-08T22:25:26.850Z,14.50
2022-12-08T22:27:53.566Z,13.32
2022-12-08T22:30:20.149Z,17.40
2022-12-08T22:32:46.875Z,22.13
2022-12-08T22:35:13.671Z,20.52
2022-12-08T22:37:40.225Z,17.98
2022-12-08T22:40:07.883Z,16.77
2022-12-08T22:42:34.773Z,15.18
2022-12-08T22:45:01.471Z,17.55
2022-12-08T22:47:28.048Z,17.02
2022-12-08T22:49:54.591Z,18.92
2022-12-08T22:52:21.269Z,17.13
2022-12-08T22:54:47.987Z,16.05
2022-12-08T22:57:14.466Z,18.65
2022-12-08T22:59:40.981Z,15.88
2022-12-08T23:02:08.128Z,15.90
2022-12-08T23:04:35.590Z,15.63
2022-12-08T23:07:02.383Z,17.35
2022-12-08T23:09:28.697Z,20.42
2022-12-08T23:11:55.778Z,28.20
2022-12-08T23:14:22.255Z,25.27
2022-12-08T23:16:48.821Z,20.27
2022-12-08T23:19:15.453Z,19.38
2022-12-08T23:21:41.814Z,16.05
2022-12-08T23:24:08.278Z,17.23
2022-12-08T23:26:35.349Z,19.20
2022-12-08T23:29:02.246Z,16.88
2022-12-08T23:31:28.829Z,17.65
2022-12-08T23:33:55.581Z,17.10
2022-12-08T23:36:24.932Z,16.40
2022-12-08T23:38:52.021Z,19.17
2022-12-08T23:41:18.525Z,18.65
2022-12-08T23:43:47.435Z,18.63
2022-12-08T23:46:15.323Z,18.17
2022-12-08T23:48:42.159Z,17.77
2022-12-08T23:51:09.224Z,19.02
2022-12-08T23:53:35.819Z,17.17
2022-12-08T23:56:05.369Z,16.13
2022-12-08T23:58:32.039Z,15.73
